Catawba, North Carolina
Current Conditions -  °F | °C
As of 7:15 AM on Friday 24 Oct 2014 (Local Time) from KSVH Reporting Station
Clear Clear  
Wind Chill: 37°   Ceiling: Unl
Heat Index: 37°   Visibility: 7mi
Dew Point: 36°   Wind: 3mph
Humidity: 97%   Direction: 220°SW
Pressure: 30.05"   Gusts: NA
Location:  35.71°N, 81.08°W
Report Text: KSVH 241115Z AUTO 22003KT 7SM CLR 03/02 A3005 RMK AO2 T00260022
Loading
Personal Weather Stations






























Interactive Weather Map
Tropical Storm Tracking
New forecast layout! Learn more

10-Day Weather Forecast

Advertisements
Track Severe Weather on mobile